BAW87A EGLL-EBBR
Flight info
| Callsign | BAW87A |
|---|---|
| Flight time | 0h 41m |
| Altitude | 23000 |
| Route | DCT DET Q70 KOK DCT |
| Aircraft | A319/M-SDE3FGIJ1KRWXY/LB1 |
Departure
| Time | 2026-05-06 14:02 |
|---|---|
| Airport | London Heathrow Airport (EGLL) |
Arrival
| Time | 2026-05-06 14:43 |
|---|---|
| Airport | Brussels Airport (EBBR) |
| Time | Latitude | Longitude | Altitude | Speed | Heading |
|---|---|---|---|---|---|
| 2026-05-06 13:21 | 51.46993 | -0.48607 | 87 ft | 0 kts | 269° |
| 2026-05-06 13:52 | 51.46993 | -0.48579 | 88 ft | 4 kts | 269° |
| 2026-05-06 13:53 | 51.46993 | -0.48574 | 88 ft | 0 kts | 269° |
| 2026-05-06 13:53 | 51.46993 | -0.48573 | 88 ft | 4 kts | 269° |
| 2026-05-06 13:53 | 51.46994 | -0.48538 | 90 ft | 4 kts | 266° |
| 2026-05-06 13:53 | 51.46998 | -0.48497 | 88 ft | 4 kts | 241° |
| 2026-05-06 13:54 | 51.47015 | -0.48473 | 91 ft | 3 kts | 180° |
| 2026-05-06 13:54 | 51.47021 | -0.48473 | 89 ft | 0 kts | 180° |
| 2026-05-06 13:56 | 51.47017 | -0.48473 | 91 ft | 2 kts | 180° |
| 2026-05-06 13:56 | 51.46985 | -0.48474 | 91 ft | 7 kts | 181° |
| 2026-05-06 13:57 | 51.46926 | -0.48471 | 87 ft | 10 kts | 180° |
| 2026-05-06 13:57 | 51.46876 | -0.48471 | 89 ft | 11 kts | 180° |
| 2026-05-06 13:57 | 51.46793 | -0.48472 | 89 ft | 14 kts | 180° |
| 2026-05-06 13:57 | 51.46738 | -0.48568 | 87 ft | 15 kts | 275° |
| 2026-05-06 13:58 | 51.46734 | -0.48733 | 87 ft | 12 kts | 244° |
| 2026-05-06 13:58 | 51.46682 | -0.48747 | 87 ft | 9 kts | 173° |
| 2026-05-06 13:58 | 51.46626 | -0.48752 | 87 ft | 4 kts | 209° |
| 2026-05-06 13:58 | 51.46602 | -0.48767 | 89 ft | 1 kts | 200° |
| 2026-05-06 13:59 | 51.46601 | -0.48767 | 89 ft | 0 kts | 200° |
| 2026-05-06 14:00 | 51.46589 | -0.48774 | 88 ft | 3 kts | 200° |
| 2026-05-06 14:00 | 51.46557 | -0.48792 | 89 ft | 6 kts | 195° |
| 2026-05-06 14:00 | 51.46508 | -0.48777 | 89 ft | 8 kts | 147° |
| 2026-05-06 14:00 | 51.46477 | -0.48692 | 89 ft | 10 kts | 91° |
| 2026-05-06 14:01 | 51.46479 | -0.48578 | 88 ft | 14 kts | 88° |
| 2026-05-06 14:01 | 51.46481 | -0.48197 | 88 ft | 66 kts | 89° |
| 2026-05-06 14:01 | 51.46484 | -0.47122 | 90 ft | 125 kts | 90° |
| 2026-05-06 14:01 | 51.46492 | -0.45460 | 203 ft | 161 kts | 85° |
| 2026-05-06 14:02 | 51.46496 | -0.43684 | 941 ft | 158 kts | 85° |
| 2026-05-06 14:02 | 51.46452 | -0.41898 | 1528 ft | 171 kts | 98° |
| 2026-05-06 14:02 | 51.45817 | -0.40116 | 1838 ft | 200 kts | 127° |
| 2026-05-06 14:02 | 51.44950 | -0.38202 | 2139 ft | 225 kts | 120° |
| 2026-05-06 14:03 | 51.44093 | -0.35943 | 2647 ft | 249 kts | 117° |
| 2026-05-06 14:03 | 51.43469 | -0.33327 | 3395 ft | 260 kts | 98° |
| 2026-05-06 14:03 | 51.43096 | -0.30420 | 4495 ft | 264 kts | 99° |
| 2026-05-06 14:03 | 51.42696 | -0.27569 | 5549 ft | 268 kts | 100° |
| 2026-05-06 14:04 | 51.42284 | -0.24641 | 6550 ft | 272 kts | 100° |
| 2026-05-06 14:04 | 51.41868 | -0.21646 | 7482 ft | 278 kts | 99° |
| 2026-05-06 14:04 | 51.41447 | -0.18584 | 8385 ft | 284 kts | 100° |
| 2026-05-06 14:04 | 51.41016 | -0.15458 | 9290 ft | 291 kts | 100° |
| 2026-05-06 14:05 | 51.40576 | -0.12258 | 10148 ft | 297 kts | 101° |
| 2026-05-06 14:05 | 51.40113 | -0.08890 | 10489 ft | 322 kts | 101° |
| 2026-05-06 14:05 | 51.39616 | -0.05271 | 10843 ft | 342 kts | 101° |
| 2026-05-06 14:05 | 51.39096 | -0.01520 | 11543 ft | 349 kts | 101° |
| 2026-05-06 14:06 | 51.38559 | 0.02306 | 12308 ft | 354 kts | 102° |
| 2026-05-06 14:06 | 51.38016 | 0.06174 | 13094 ft | 358 kts | 102° |
| 2026-05-06 14:06 | 51.37465 | 0.10092 | 13841 ft | 363 kts | 102° |
| 2026-05-06 14:06 | 51.36906 | 0.14056 | 14511 ft | 367 kts | 102° |
| 2026-05-06 14:07 | 51.36343 | 0.18062 | 15200 ft | 371 kts | 102° |
| 2026-05-06 14:07 | 51.35774 | 0.22116 | 15887 ft | 375 kts | 102° |
| 2026-05-06 14:07 | 51.35201 | 0.26192 | 16561 ft | 378 kts | 102° |
| 2026-05-06 14:07 | 51.34625 | 0.30266 | 17238 ft | 382 kts | 103° |
| 2026-05-06 14:08 | 51.34033 | 0.34430 | 17954 ft | 386 kts | 103° |
| 2026-05-06 14:08 | 51.33432 | 0.38628 | 18567 ft | 389 kts | 103° |
| 2026-05-06 14:08 | 51.32821 | 0.42865 | 19174 ft | 392 kts | 103° |
| 2026-05-06 14:08 | 51.32206 | 0.47131 | 19775 ft | 396 kts | 103° |
| 2026-05-06 14:09 | 51.31587 | 0.51435 | 20397 ft | 399 kts | 103° |
| 2026-05-06 14:09 | 51.30962 | 0.55779 | 21002 ft | 402 kts | 103° |
| 2026-05-06 14:09 | 51.30416 | 0.60174 | 21583 ft | 406 kts | 97° |
| 2026-05-06 14:09 | 51.30226 | 0.64690 | 22153 ft | 409 kts | 93° |
| 2026-05-06 14:10 | 51.30077 | 0.69234 | 22711 ft | 412 kts | 94° |
| 2026-05-06 14:10 | 51.29915 | 0.73827 | 22960 ft | 414 kts | 94° |
| 2026-05-06 14:10 | 51.29747 | 0.78381 | 22993 ft | 408 kts | 94° |
| 2026-05-06 14:10 | 51.29577 | 0.82889 | 22988 ft | 406 kts | 94° |
| 2026-05-06 14:11 | 51.29405 | 0.87390 | 22968 ft | 405 kts | 94° |
| 2026-05-06 14:11 | 51.29233 | 0.91884 | 22968 ft | 405 kts | 94° |
| 2026-05-06 14:11 | 51.29060 | 0.96377 | 22963 ft | 405 kts | 94° |
| 2026-05-06 14:11 | 51.28887 | 1.00859 | 22965 ft | 405 kts | 94° |
| 2026-05-06 14:12 | 51.28715 | 1.05372 | 22962 ft | 405 kts | 94° |
| 2026-05-06 14:12 | 51.28543 | 1.09862 | 22965 ft | 406 kts | 94° |
| 2026-05-06 14:12 | 51.28370 | 1.14291 | 22962 ft | 405 kts | 94° |
| 2026-05-06 14:12 | 51.28193 | 1.18800 | 22960 ft | 405 kts | 94° |
| 2026-05-06 14:13 | 51.28014 | 1.23294 | 22959 ft | 405 kts | 95° |
| 2026-05-06 14:13 | 51.27828 | 1.27798 | 22960 ft | 405 kts | 95° |
| 2026-05-06 14:13 | 51.27642 | 1.32286 | 22960 ft | 405 kts | 95° |
| 2026-05-06 14:13 | 51.27454 | 1.36774 | 22958 ft | 405 kts | 95° |
| 2026-05-06 14:14 | 51.27263 | 1.41263 | 22952 ft | 405 kts | 95° |
| 2026-05-06 14:14 | 51.27071 | 1.45753 | 22951 ft | 405 kts | 95° |
| 2026-05-06 14:14 | 51.26880 | 1.50238 | 22953 ft | 405 kts | 95° |
| 2026-05-06 14:14 | 51.26689 | 1.54710 | 22956 ft | 405 kts | 95° |
| 2026-05-06 14:15 | 51.26498 | 1.59198 | 22953 ft | 405 kts | 95° |
| 2026-05-06 14:15 | 51.26307 | 1.63685 | 22949 ft | 405 kts | 95° |
| 2026-05-06 14:15 | 51.26111 | 1.68168 | 22951 ft | 405 kts | 95° |
| 2026-05-06 14:15 | 51.25909 | 1.72656 | 22948 ft | 405 kts | 95° |
| 2026-05-06 14:16 | 51.25707 | 1.77131 | 22953 ft | 405 kts | 95° |
| 2026-05-06 14:16 | 51.25502 | 1.81606 | 22951 ft | 405 kts | 95° |
| 2026-05-06 14:16 | 51.25298 | 1.86021 | 22953 ft | 405 kts | 95° |
| 2026-05-06 14:16 | 51.25091 | 1.90499 | 22953 ft | 405 kts | 95° |
| 2026-05-06 14:17 | 51.24883 | 1.94979 | 22951 ft | 405 kts | 95° |
| 2026-05-06 14:17 | 51.24676 | 1.99466 | 22955 ft | 405 kts | 95° |
| 2026-05-06 14:17 | 51.24467 | 2.03957 | 22951 ft | 405 kts | 95° |
| 2026-05-06 14:17 | 51.24254 | 2.08434 | 22949 ft | 405 kts | 95° |
| 2026-05-06 14:18 | 51.24038 | 2.12909 | 22951 ft | 405 kts | 95° |
| 2026-05-06 14:18 | 51.23820 | 2.17406 | 22947 ft | 405 kts | 95° |
| 2026-05-06 14:18 | 51.23601 | 2.21879 | 22944 ft | 405 kts | 95° |
| 2026-05-06 14:18 | 51.23381 | 2.26341 | 22946 ft | 405 kts | 95° |
| 2026-05-06 14:19 | 51.23160 | 2.30840 | 22943 ft | 405 kts | 95° |
| 2026-05-06 14:19 | 51.22854 | 2.35302 | 22939 ft | 405 kts | 102° |
| 2026-05-06 14:19 | 51.22091 | 2.39604 | 22937 ft | 403 kts | 112° |
| 2026-05-06 14:19 | 51.20858 | 2.43606 | 22941 ft | 401 kts | 123° |
| 2026-05-06 14:20 | 51.19211 | 2.47176 | 22939 ft | 399 kts | 132° |
| 2026-05-06 14:20 | 51.17399 | 2.50521 | 22938 ft | 400 kts | 132° |
| 2026-05-06 14:20 | 51.15580 | 2.53879 | 22936 ft | 400 kts | 132° |
| 2026-05-06 14:20 | 51.13761 | 2.57237 | 22940 ft | 400 kts | 132° |
| 2026-05-06 14:21 | 51.11960 | 2.60576 | 22941 ft | 400 kts | 131° |
| 2026-05-06 14:21 | 51.10383 | 2.64243 | 22938 ft | 401 kts | 120° |
| 2026-05-06 14:21 | 51.09248 | 2.68311 | 22941 ft | 403 kts | 109° |
| 2026-05-06 14:21 | 51.08589 | 2.72567 | 22942 ft | 403 kts | 101° |
| 2026-05-06 14:22 | 51.08081 | 2.76968 | 22941 ft | 403 kts | 101° |
| 2026-05-06 14:22 | 51.07559 | 2.81356 | 22935 ft | 403 kts | 101° |
| 2026-05-06 14:22 | 51.07026 | 2.85739 | 22937 ft | 403 kts | 102° |
| 2026-05-06 14:22 | 51.06489 | 2.90108 | 22936 ft | 403 kts | 102° |
| 2026-05-06 14:23 | 51.05953 | 2.94473 | 22940 ft | 403 kts | 102° |
| 2026-05-06 14:23 | 51.05412 | 2.98872 | 22943 ft | 403 kts | 102° |
| 2026-05-06 14:23 | 51.04873 | 3.03253 | 22941 ft | 403 kts | 102° |
| 2026-05-06 14:23 | 51.04336 | 3.07620 | 22937 ft | 403 kts | 102° |
| 2026-05-06 14:24 | 51.03800 | 3.11997 | 22827 ft | 402 kts | 102° |
| 2026-05-06 14:24 | 51.03266 | 3.16344 | 22545 ft | 399 kts | 102° |
| 2026-05-06 14:24 | 51.02733 | 3.20654 | 22275 ft | 397 kts | 102° |
| 2026-05-06 14:24 | 51.02206 | 3.24892 | 22007 ft | 395 kts | 102° |
| 2026-05-06 14:25 | 51.01670 | 3.29168 | 21733 ft | 393 kts | 102° |
| 2026-05-06 14:25 | 51.01139 | 3.33394 | 21472 ft | 392 kts | 102° |
| 2026-05-06 14:25 | 51.00605 | 3.37647 | 21202 ft | 390 kts | 102° |
| 2026-05-06 14:25 | 51.00076 | 3.41866 | 20942 ft | 388 kts | 102° |
| 2026-05-06 14:26 | 50.99547 | 3.46057 | 20684 ft | 387 kts | 102° |
| 2026-05-06 14:26 | 50.99016 | 3.50244 | 20431 ft | 385 kts | 102° |
| 2026-05-06 14:26 | 50.98491 | 3.54388 | 20174 ft | 383 kts | 102° |
| 2026-05-06 14:26 | 50.97965 | 3.58535 | 19907 ft | 379 kts | 102° |
| 2026-05-06 14:27 | 50.97446 | 3.62620 | 19434 ft | 376 kts | 102° |
| 2026-05-06 14:27 | 50.96936 | 3.66611 | 18947 ft | 373 kts | 102° |
| 2026-05-06 14:27 | 50.96419 | 3.70633 | 18449 ft | 371 kts | 102° |
| 2026-05-06 14:27 | 50.95904 | 3.74609 | 17908 ft | 369 kts | 102° |
| 2026-05-06 14:28 | 50.95389 | 3.78583 | 17398 ft | 365 kts | 102° |
| 2026-05-06 14:28 | 50.94882 | 3.82503 | 16898 ft | 361 kts | 101° |
| 2026-05-06 14:28 | 50.94377 | 3.86389 | 16404 ft | 358 kts | 101° |
| 2026-05-06 14:28 | 50.93878 | 3.90232 | 15921 ft | 355 kts | 101° |
| 2026-05-06 14:29 | 50.93379 | 3.94054 | 15422 ft | 352 kts | 101° |
| 2026-05-06 14:29 | 50.93133 | 3.97890 | 14948 ft | 349 kts | 89° |
| 2026-05-06 14:29 | 50.93390 | 4.01685 | 14475 ft | 345 kts | 77° |
| 2026-05-06 14:29 | 50.94091 | 4.05299 | 14007 ft | 341 kts | 68° |
| 2026-05-06 14:30 | 50.94905 | 4.08820 | 13516 ft | 340 kts | 68° |
| 2026-05-06 14:30 | 50.95706 | 4.12315 | 13025 ft | 336 kts | 68° |
| 2026-05-06 14:30 | 50.96500 | 4.15791 | 12563 ft | 333 kts | 69° |
| 2026-05-06 14:30 | 50.97284 | 4.19238 | 12101 ft | 330 kts | 69° |
| 2026-05-06 14:31 | 50.98059 | 4.22648 | 11649 ft | 327 kts | 69° |
| 2026-05-06 14:31 | 50.98828 | 4.26033 | 11193 ft | 325 kts | 69° |
| 2026-05-06 14:31 | 50.99591 | 4.29403 | 10744 ft | 322 kts | 69° |
| 2026-05-06 14:31 | 51.00336 | 4.32691 | 10320 ft | 320 kts | 69° |
| 2026-05-06 14:32 | 51.01071 | 4.35947 | 10165 ft | 308 kts | 69° |
| 2026-05-06 14:32 | 51.01781 | 4.39089 | 10036 ft | 297 kts | 69° |
| 2026-05-06 14:32 | 51.02471 | 4.42148 | 9838 ft | 290 kts | 69° |
| 2026-05-06 14:32 | 51.03150 | 4.45169 | 9726 ft | 290 kts | 69° |
| 2026-05-06 14:33 | 51.03829 | 4.48195 | 9285 ft | 291 kts | 69° |
| 2026-05-06 14:33 | 51.04505 | 4.51211 | 8937 ft | 288 kts | 69° |
| 2026-05-06 14:33 | 51.05179 | 4.54209 | 8542 ft | 286 kts | 68° |
| 2026-05-06 14:33 | 51.05845 | 4.57177 | 8083 ft | 284 kts | 68° |
| 2026-05-06 14:34 | 51.06490 | 4.60064 | 7938 ft | 270 kts | 68° |
| 2026-05-06 14:34 | 51.07111 | 4.62809 | 7810 ft | 258 kts | 68° |
| 2026-05-06 14:34 | 51.07706 | 4.65433 | 7650 ft | 248 kts | 68° |
| 2026-05-06 14:34 | 51.08282 | 4.67993 | 7353 ft | 244 kts | 68° |
| 2026-05-06 14:35 | 51.08849 | 4.70528 | 7003 ft | 243 kts | 68° |
| 2026-05-06 14:35 | 51.09414 | 4.73048 | 6654 ft | 241 kts | 68° |
| 2026-05-06 14:35 | 51.09971 | 4.75562 | 6302 ft | 240 kts | 68° |
| 2026-05-06 14:35 | 51.10522 | 4.78067 | 5936 ft | 239 kts | 68° |
| 2026-05-06 14:36 | 51.11054 | 4.80561 | 5587 ft | 238 kts | 72° |
| 2026-05-06 14:36 | 51.11117 | 4.83145 | 5328 ft | 241 kts | 99° |
| 2026-05-06 14:36 | 51.10392 | 4.85579 | 5021 ft | 244 kts | 128° |
| 2026-05-06 14:36 | 51.09020 | 4.87169 | 4723 ft | 247 kts | 158° |
| 2026-05-06 14:37 | 51.07363 | 4.87538 | 4424 ft | 246 kts | 188° |
| 2026-05-06 14:37 | 51.05759 | 4.86666 | 4083 ft | 244 kts | 209° |
| 2026-05-06 14:37 | 51.04239 | 4.85455 | 3750 ft | 244 kts | 208° |
| 2026-05-06 14:37 | 51.02724 | 4.84256 | 3454 ft | 243 kts | 208° |
| 2026-05-06 14:38 | 51.01202 | 4.83057 | 3151 ft | 243 kts | 208° |
| 2026-05-06 14:38 | 50.99698 | 4.81874 | 2919 ft | 238 kts | 208° |
| 2026-05-06 14:38 | 50.98243 | 4.80730 | 2787 ft | 230 kts | 208° |
| 2026-05-06 14:38 | 50.96855 | 4.79557 | 2649 ft | 221 kts | 218° |
| 2026-05-06 14:39 | 50.95834 | 4.77857 | 2542 ft | 209 kts | 241° |
| 2026-05-06 14:39 | 50.95273 | 4.75814 | 2405 ft | 198 kts | 253° |
| 2026-05-06 14:39 | 50.94816 | 4.73817 | 2300 ft | 185 kts | 253° |
| 2026-05-06 14:39 | 50.94392 | 4.71961 | 2170 ft | 175 kts | 254° |
| 2026-05-06 14:40 | 50.93989 | 4.70195 | 2058 ft | 171 kts | 254° |
| 2026-05-06 14:40 | 50.93589 | 4.68443 | 2007 ft | 168 kts | 254° |
| 2026-05-06 14:40 | 50.93190 | 4.66694 | 1994 ft | 169 kts | 254° |
| 2026-05-06 14:40 | 50.92787 | 4.64937 | 1855 ft | 169 kts | 254° |
| 2026-05-06 14:41 | 50.92388 | 4.63194 | 1652 ft | 168 kts | 254° |
| 2026-05-06 14:41 | 50.91987 | 4.61443 | 1439 ft | 169 kts | 254° |
| 2026-05-06 14:41 | 50.91593 | 4.59730 | 1205 ft | 161 kts | 253° |
| 2026-05-06 14:41 | 50.91233 | 4.58167 | 991 ft | 143 kts | 254° |
| 2026-05-06 14:42 | 50.90902 | 4.56726 | 787 ft | 138 kts | 254° |
| 2026-05-06 14:42 | 50.90578 | 4.55318 | 625 ft | 134 kts | 253° |
| 2026-05-06 14:42 | 50.90259 | 4.53929 | 420 ft | 134 kts | 255° |
| 2026-05-06 14:42 | 50.89946 | 4.52537 | 227 ft | 134 kts | 253° |
| 2026-05-06 14:43 | 50.89644 | 4.51223 | 158 ft | 113 kts | 250° |
| 2026-05-06 14:43 | 50.89418 | 4.50246 | 154 ft | 81 kts | 250° |
| 2026-05-06 14:43 | 50.89253 | 4.49540 | 150 ft | 50 kts | 250° |
| 2026-05-06 14:43 | 50.89274 | 4.49198 | 148 ft | 25 kts | 329° |
| 2026-05-06 14:44 | 50.89342 | 4.49090 | 149 ft | 11 kts | 307° |
| 2026-05-06 14:44 | 50.89374 | 4.49025 | 149 ft | 7 kts | 307° |
| 2026-05-06 14:44 | 50.89417 | 4.49007 | 149 ft | 8 kts | 12° |
| 2026-05-06 14:45 | 50.89511 | 4.49044 | 148 ft | 2 kts | 14° |
| 2026-05-06 14:45 | 50.89535 | 4.49054 | 148 ft | 3 kts | 14° |
| 2026-05-06 14:45 | 50.89549 | 4.49060 | 148 ft | 0 kts | 14° |
| 2026-05-06 14:45 | 50.89551 | 4.49061 | 148 ft | 2 kts | 14° |
| 2026-05-06 14:46 | 50.89569 | 4.49050 | 147 ft | 3 kts | 318° |
| 2026-05-06 14:46 | 50.89572 | 4.49017 | 148 ft | 3 kts | 307° |
| 2026-05-06 14:46 | 50.89598 | 4.48999 | 147 ft | 6 kts | 336° |
| 2026-05-06 14:46 | 50.89635 | 4.48972 | 147 ft | 2 kts | 336° |
| 2026-05-06 14:47 | 50.89643 | 4.48967 | 147 ft | 0 kts | 335° |